sensor_id;sensor_type;location;lat;lon;timestamp;P1;durP1;ratioP1;P2;durP2;ratioP2
39738;SDS011;25422;48.286;8.484;2023-07-02T00:02:22;4.68;;;3.33;;
39738;SDS011;25422;48.286;8.484;2023-07-02T00:04:48;3.85;;;3.40;;
39738;SDS011;25422;48.286;8.484;2023-07-02T00:07:13;3.88;;;3.25;;
39738;SDS011;25422;48.286;8.484;2023-07-02T00:09:42;4.10;;;3.70;;
39738;SDS011;25422;48.286;8.484;2023-07-02T00:12:07;4.70;;;3.75;;
39738;SDS011;25422;48.286;8.484;2023-07-02T00:14:33;4.63;;;3.63;;
39738;SDS011;25422;48.286;8.484;2023-07-02T00:16:59;4.18;;;3.78;;
39738;SDS011;25422;48.286;8.484;2023-07-02T00:19:25;4.40;;;3.45;;
39738;SDS011;25422;48.286;8.484;2023-07-02T00:21:50;4.90;;;3.50;;
39738;SDS011;25422;48.286;8.484;2023-07-02T00:24:15;7.88;;;3.70;;
39738;SDS011;25422;48.286;8.484;2023-07-02T00:26:41;6.40;;;3.60;;
39738;SDS011;25422;48.286;8.484;2023-07-02T00:29:10;4.43;;;3.47;;
39738;SDS011;25422;48.286;8.484;2023-07-02T00:31:36;3.75;;;3.40;;
39738;SDS011;25422;48.286;8.484;2023-07-02T00:34:01;5.00;;;3.67;;
39738;SDS011;25422;48.286;8.484;2023-07-02T00:36:28;4.20;;;3.80;;
39738;SDS011;25422;48.286;8.484;2023-07-02T00:38:54;6.03;;;3.50;;
39738;SDS011;25422;48.286;8.484;2023-07-02T00:41:19;5.00;;;3.33;;
39738;SDS011;25422;48.286;8.484;2023-07-02T00:43:45;4.43;;;3.60;;
39738;SDS011;25422;48.286;8.484;2023-07-02T00:46:14;5.63;;;3.65;;
39738;SDS011;25422;48.286;8.484;2023-07-02T00:48:43;4.68;;;4.07;;
39738;SDS011;25422;48.286;8.484;2023-07-02T00:51:11;6.03;;;3.95;;
39738;SDS011;25422;48.286;8.484;2023-07-02T00:53:39;3.75;;;3.33;;
39738;SDS011;25422;48.286;8.484;2023-07-02T00:56:05;4.55;;;3.55;;
39738;SDS011;25422;48.286;8.484;2023-07-02T00:58:33;5.03;;;3.95;;
39738;SDS011;25422;48.286;8.484;2023-07-02T01:03:38;7.53;;;3.60;;
39738;SDS011;25422;48.286;8.484;2023-07-02T01:06:06;4.03;;;3.67;;
39738;SDS011;25422;48.286;8.484;2023-07-02T01:08:32;5.07;;;4.40;;
39738;SDS011;25422;48.286;8.484;2023-07-02T01:10:57;4.05;;;3.45;;
39738;SDS011;25422;48.286;8.484;2023-07-02T01:13:24;4.32;;;3.88;;
39738;SDS011;25422;48.286;8.484;2023-07-02T01:15:51;4.53;;;4.05;;
39738;SDS011;25422;48.286;8.484;2023-07-02T01:18:16;5.85;;;3.92;;
39738;SDS011;25422;48.286;8.484;2023-07-02T01:20:42;4.75;;;4.10;;
39738;SDS011;25422;48.286;8.484;2023-07-02T01:23:08;5.28;;;4.40;;
39738;SDS011;25422;48.286;8.484;2023-07-02T01:25:34;5.53;;;4.20;;
39738;SDS011;25422;48.286;8.484;2023-07-02T01:28:01;4.43;;;4.00;;
39738;SDS011;25422;48.286;8.484;2023-07-02T01:30:27;5.05;;;4.05;;
39738;SDS011;25422;48.286;8.484;2023-07-02T01:32:53;4.95;;;3.92;;
39738;SDS011;25422;48.286;8.484;2023-07-02T01:35:18;5.07;;;3.78;;
39738;SDS011;25422;48.286;8.484;2023-07-02T01:37:44;5.53;;;4.20;;
39738;SDS011;25422;48.286;8.484;2023-07-02T01:40:09;4.60;;;4.00;;
39738;SDS011;25422;48.286;8.484;2023-07-02T01:42:35;5.07;;;4.38;;
39738;SDS011;25422;48.286;8.484;2023-07-02T01:45:01;8.48;;;3.83;;
39738;SDS011;25422;48.286;8.484;2023-07-02T01:47:27;6.97;;;4.05;;
39738;SDS011;25422;48.286;8.484;2023-07-02T01:49:53;5.00;;;3.90;;
39738;SDS011;25422;48.286;8.484;2023-07-02T01:52:18;4.78;;;4.00;;
39738;SDS011;25422;48.286;8.484;2023-07-02T01:54:44;8.32;;;4.35;;
39738;SDS011;25422;48.286;8.484;2023-07-02T01:57:10;5.72;;;3.85;;
39738;SDS011;25422;48.286;8.484;2023-07-02T01:59:37;7.65;;;4.30;;
39738;SDS011;25422;48.286;8.484;2023-07-02T02:02:02;4.07;;;3.67;;
39738;SDS011;25422;48.286;8.484;2023-07-02T02:04:27;5.22;;;3.90;;
39738;SDS011;25422;48.286;8.484;2023-07-02T02:06:53;5.75;;;3.83;;
39738;SDS011;25422;48.286;8.484;2023-07-02T02:09:19;4.50;;;4.07;;
39738;SDS011;25422;48.286;8.484;2023-07-02T02:11:45;5.70;;;4.22;;
39738;SDS011;25422;48.286;8.484;2023-07-02T02:14:13;4.78;;;4.15;;
39738;SDS011;25422;48.286;8.484;2023-07-02T02:16:38;5.85;;;3.75;;
39738;SDS011;25422;48.286;8.484;2023-07-02T02:19:04;6.07;;;4.22;;
39738;SDS011;25422;48.286;8.484;2023-07-02T02:21:30;5.45;;;4.15;;
39738;SDS011;25422;48.286;8.484;2023-07-02T02:23:55;7.85;;;4.05;;
39738;SDS011;25422;48.286;8.484;2023-07-02T02:26:21;7.55;;;4.35;;
39738;SDS011;25422;48.286;8.484;2023-07-02T02:28:48;6.40;;;4.25;;
39738;SDS011;25422;48.286;8.484;2023-07-02T02:31:14;5.50;;;4.47;;
39738;SDS011;25422;48.286;8.484;2023-07-02T02:33:40;7.05;;;4.72;;
39738;SDS011;25422;48.286;8.484;2023-07-02T02:36:06;6.43;;;4.57;;
39738;SDS011;25422;48.286;8.484;2023-07-02T02:38:31;8.07;;;4.60;;
39738;SDS011;25422;48.286;8.484;2023-07-02T02:40:59;7.63;;;4.70;;
39738;SDS011;25422;48.286;8.484;2023-07-02T02:45:54;6.15;;;4.68;;
39738;SDS011;25422;48.286;8.484;2023-07-02T02:48:20;6.35;;;4.93;;
39738;SDS011;25422;48.286;8.484;2023-07-02T02:50:48;5.18;;;4.68;;
39738;SDS011;25422;48.286;8.484;2023-07-02T02:53:13;8.52;;;5.10;;
39738;SDS011;25422;48.286;8.484;2023-07-02T02:55:38;6.63;;;5.30;;
39738;SDS011;25422;48.286;8.484;2023-07-02T02:58:04;6.18;;;5.53;;
39738;SDS011;25422;48.286;8.484;2023-07-02T03:00:29;8.05;;;5.32;;
39738;SDS011;25422;48.286;8.484;2023-07-02T03:02:55;7.07;;;4.82;;
39738;SDS011;25422;48.286;8.484;2023-07-02T03:05:21;8.65;;;4.90;;
39738;SDS011;25422;48.286;8.484;2023-07-02T03:07:47;10.25;;;4.88;;
39738;SDS011;25422;48.286;8.484;2023-07-02T03:10:12;6.95;;;5.10;;
39738;SDS011;25422;48.286;8.484;2023-07-02T03:12:38;6.20;;;4.75;;
39738;SDS011;25422;48.286;8.484;2023-07-02T03:15:03;6.90;;;4.90;;
39738;SDS011;25422;48.286;8.484;2023-07-02T03:17:29;7.22;;;4.82;;
39738;SDS011;25422;48.286;8.484;2023-07-02T03:19:54;8.52;;;4.68;;
39738;SDS011;25422;48.286;8.484;2023-07-02T03:22:20;8.50;;;4.88;;
39738;SDS011;25422;48.286;8.484;2023-07-02T03:24:45;7.07;;;4.72;;
39738;SDS011;25422;48.286;8.484;2023-07-02T03:27:11;5.88;;;4.97;;
39738;SDS011;25422;48.286;8.484;2023-07-02T03:29:36;7.70;;;5.20;;
39738;SDS011;25422;48.286;8.484;2023-07-02T03:32:03;6.80;;;5.05;;
39738;SDS011;25422;48.286;8.484;2023-07-02T03:34:29;7.10;;;4.85;;
39738;SDS011;25422;48.286;8.484;2023-07-02T03:36:55;7.13;;;4.40;;
39738;SDS011;25422;48.286;8.484;2023-07-02T03:39:20;6.50;;;4.88;;
39738;SDS011;25422;48.286;8.484;2023-07-02T03:41:45;10.10;;;5.05;;
39738;SDS011;25422;48.286;8.484;2023-07-02T03:44:11;10.57;;;5.20;;
39738;SDS011;25422;48.286;8.484;2023-07-02T03:46:36;10.35;;;5.30;;
39738;SDS011;25422;48.286;8.484;2023-07-02T03:49:02;10.95;;;5.43;;
39738;SDS011;25422;48.286;8.484;2023-07-02T03:51:28;10.23;;;5.20;;
39738;SDS011;25422;48.286;8.484;2023-07-02T03:53:54;8.68;;;4.90;;
39738;SDS011;25422;48.286;8.484;2023-07-02T03:56:19;7.57;;;5.00;;
39738;SDS011;25422;48.286;8.484;2023-07-02T03:58:45;7.00;;;4.68;;
39738;SDS011;25422;48.286;8.484;2023-07-02T04:01:10;8.38;;;5.05;;
39738;SDS011;25422;48.286;8.484;2023-07-02T04:03:35;8.40;;;4.78;;
39738;SDS011;25422;48.286;8.484;2023-07-02T04:06:01;9.93;;;5.60;;
39738;SDS011;25422;48.286;8.484;2023-07-02T04:08:26;8.85;;;5.65;;
39738;SDS011;25422;48.286;8.484;2023-07-02T04:10:53;8.60;;;5.50;;
39738;SDS011;25422;48.286;8.484;2023-07-02T04:13:19;7.93;;;5.03;;
39738;SDS011;25422;48.286;8.484;2023-07-02T04:15:45;9.80;;;4.72;;
39738;SDS011;25422;48.286;8.484;2023-07-02T04:18:10;7.57;;;4.85;;
39738;SDS011;25422;48.286;8.484;2023-07-02T04:20:36;9.40;;;4.57;;
39738;SDS011;25422;48.286;8.484;2023-07-02T04:23:04;6.97;;;4.90;;
39738;SDS011;25422;48.286;8.484;2023-07-02T04:25:29;11.75;;;5.07;;
39738;SDS011;25422;48.286;8.484;2023-07-02T04:27:55;6.22;;;4.70;;
39738;SDS011;25422;48.286;8.484;2023-07-02T04:30:22;8.23;;;4.90;;
39738;SDS011;25422;48.286;8.484;2023-07-02T04:32:47;10.52;;;5.30;;
39738;SDS011;25422;48.286;8.484;2023-07-02T04:35:13;6.05;;;4.53;;
39738;SDS011;25422;48.286;8.484;2023-07-02T04:37:38;10.32;;;4.90;;
39738;SDS011;25422;48.286;8.484;2023-07-02T04:40:04;8.65;;;4.95;;
39738;SDS011;25422;48.286;8.484;2023-07-02T04:42:34;7.50;;;5.03;;
39738;SDS011;25422;48.286;8.484;2023-07-02T04:45:05;13.20;;;5.25;;
39738;SDS011;25422;48.286;8.484;2023-07-02T04:47:33;7.53;;;4.70;;
39738;SDS011;25422;48.286;8.484;2023-07-02T04:49:59;9.88;;;5.13;;
39738;SDS011;25422;48.286;8.484;2023-07-02T04:52:25;10.48;;;4.78;;
39738;SDS011;25422;48.286;8.484;2023-07-02T04:54:50;12.50;;;5.15;;
39738;SDS011;25422;48.286;8.484;2023-07-02T04:57:16;8.80;;;4.90;;
39738;SDS011;25422;48.286;8.484;2023-07-02T04:59:42;13.23;;;5.20;;
39738;SDS011;25422;48.286;8.484;2023-07-02T05:02:08;7.10;;;4.90;;
39738;SDS011;25422;48.286;8.484;2023-07-02T05:04:35;9.45;;;4.95;;
39738;SDS011;25422;48.286;8.484;2023-07-02T05:07:02;9.57;;;5.32;;
39738;SDS011;25422;48.286;8.484;2023-07-02T05:09:29;8.95;;;5.28;;
39738;SDS011;25422;48.286;8.484;2023-07-02T05:11:55;10.27;;;5.18;;
39738;SDS011;25422;48.286;8.484;2023-07-02T05:14:20;10.40;;;5.40;;
39738;SDS011;25422;48.286;8.484;2023-07-02T05:16:45;8.15;;;5.30;;
39738;SDS011;25422;48.286;8.484;2023-07-02T05:19:11;8.40;;;5.13;;
39738;SDS011;25422;48.286;8.484;2023-07-02T05:21:36;9.85;;;5.05;;
39738;SDS011;25422;48.286;8.484;2023-07-02T05:24:02;10.98;;;4.75;;
39738;SDS011;25422;48.286;8.484;2023-07-02T05:26:27;8.68;;;5.30;;
39738;SDS011;25422;48.286;8.484;2023-07-02T05:28:53;8.30;;;4.85;;
39738;SDS011;25422;48.286;8.484;2023-07-02T05:31:18;9.65;;;5.25;;
39738;SDS011;25422;48.286;8.484;2023-07-02T05:33:44;9.93;;;5.65;;
39738;SDS011;25422;48.286;8.484;2023-07-02T05:36:10;11.70;;;5.70;;
39738;SDS011;25422;48.286;8.484;2023-07-02T05:38:35;10.88;;;6.15;;
39738;SDS011;25422;48.286;8.484;2023-07-02T05:41:04;8.10;;;5.47;;
39738;SDS011;25422;48.286;8.484;2023-07-02T05:43:29;13.60;;;5.47;;
39738;SDS011;25422;48.286;8.484;2023-07-02T05:45:57;8.88;;;5.63;;
39738;SDS011;25422;48.286;8.484;2023-07-02T05:48:25;10.65;;;5.95;;
39738;SDS011;25422;48.286;8.484;2023-07-02T05:50:50;9.70;;;6.68;;
39738;SDS011;25422;48.286;8.484;2023-07-02T05:53:16;12.80;;;6.25;;
39738;SDS011;25422;48.286;8.484;2023-07-02T05:55:41;15.32;;;6.40;;
39738;SDS011;25422;48.286;8.484;2023-07-02T05:58:07;11.52;;;5.80;;
39738;SDS011;25422;48.286;8.484;2023-07-02T06:00:32;11.00;;;6.85;;
39738;SDS011;25422;48.286;8.484;2023-07-02T06:02:58;13.35;;;6.63;;
39738;SDS011;25422;48.286;8.484;2023-07-02T06:05:23;9.43;;;6.28;;
39738;SDS011;25422;48.286;8.484;2023-07-02T06:07:48;12.40;;;7.10;;
39738;SDS011;25422;48.286;8.484;2023-07-02T06:10:14;11.77;;;7.15;;
39738;SDS011;25422;48.286;8.484;2023-07-02T06:12:39;13.45;;;6.45;;
39738;SDS011;25422;48.286;8.484;2023-07-02T06:15:05;14.82;;;7.22;;
39738;SDS011;25422;48.286;8.484;2023-07-02T06:17:31;13.07;;;7.43;;
39738;SDS011;25422;48.286;8.484;2023-07-02T06:19:56;16.73;;;7.90;;
39738;SDS011;25422;48.286;8.484;2023-07-02T06:22:22;13.65;;;7.55;;
39738;SDS011;25422;48.286;8.484;2023-07-02T06:24:48;16.67;;;8.10;;
39738;SDS011;25422;48.286;8.484;2023-07-02T06:27:14;16.50;;;8.95;;
39738;SDS011;25422;48.286;8.484;2023-07-02T06:29:39;16.33;;;8.50;;
39738;SDS011;25422;48.286;8.484;2023-07-02T06:32:05;16.17;;;8.80;;
39738;SDS011;25422;48.286;8.484;2023-07-02T06:34:31;14.98;;;8.93;;
39738;SDS011;25422;48.286;8.484;2023-07-02T06:36:56;13.75;;;8.52;;
39738;SDS011;25422;48.286;8.484;2023-07-02T06:39:22;13.43;;;8.35;;
39738;SDS011;25422;48.286;8.484;2023-07-02T06:41:47;12.30;;;8.23;;
39738;SDS011;25422;48.286;8.484;2023-07-02T06:44:15;16.75;;;8.27;;
39738;SDS011;25422;48.286;8.484;2023-07-02T06:46:40;17.63;;;9.20;;
39738;SDS011;25422;48.286;8.484;2023-07-02T06:49:06;15.18;;;8.82;;
39738;SDS011;25422;48.286;8.484;2023-07-02T06:51:31;15.93;;;9.50;;
39738;SDS011;25422;48.286;8.484;2023-07-02T06:53:58;15.85;;;9.75;;
39738;SDS011;25422;48.286;8.484;2023-07-02T06:56:24;16.05;;;9.32;;
39738;SDS011;25422;48.286;8.484;2023-07-02T06:58:49;13.73;;;9.13;;
39738;SDS011;25422;48.286;8.484;2023-07-02T07:01:14;16.23;;;9.13;;
39738;SDS011;25422;48.286;8.484;2023-07-02T07:03:40;18.58;;;9.80;;
39738;SDS011;25422;48.286;8.484;2023-07-02T07:06:05;16.60;;;9.52;;
39738;SDS011;25422;48.286;8.484;2023-07-02T07:08:31;15.38;;;9.05;;
39738;SDS011;25422;48.286;8.484;2023-07-02T07:10:56;15.52;;;9.63;;
39738;SDS011;25422;48.286;8.484;2023-07-02T07:13:21;16.10;;;8.38;;
39738;SDS011;25422;48.286;8.484;2023-07-02T07:15:47;15.75;;;9.32;;
39738;SDS011;25422;48.286;8.484;2023-07-02T07:18:12;15.85;;;10.25;;
39738;SDS011;25422;48.286;8.484;2023-07-02T07:20:39;15.10;;;9.57;;
39738;SDS011;25422;48.286;8.484;2023-07-02T07:23:05;16.83;;;9.70;;
39738;SDS011;25422;48.286;8.484;2023-07-02T07:25:31;17.95;;;10.80;;
39738;SDS011;25422;48.286;8.484;2023-07-02T07:27:57;17.02;;;10.02;;
39738;SDS011;25422;48.286;8.484;2023-07-02T07:30:24;16.85;;;10.68;;
39738;SDS011;25422;48.286;8.484;2023-07-02T07:32:50;19.52;;;10.43;;
39738;SDS011;25422;48.286;8.484;2023-07-02T07:35:16;16.85;;;10.55;;
39738;SDS011;25422;48.286;8.484;2023-07-02T07:37:42;19.35;;;10.38;;
39738;SDS011;25422;48.286;8.484;2023-07-02T07:40:08;17.98;;;10.98;;
39738;SDS011;25422;48.286;8.484;2023-07-02T07:42:33;19.67;;;11.52;;
39738;SDS011;25422;48.286;8.484;2023-07-02T07:44:59;20.10;;;13.38;;
39738;SDS011;25422;48.286;8.484;2023-07-02T07:47:24;19.65;;;13.00;;
39738;SDS011;25422;48.286;8.484;2023-07-02T07:49:49;22.60;;;14.55;;
39738;SDS011;25422;48.286;8.484;2023-07-02T07:52:15;23.52;;;14.73;;
39738;SDS011;25422;48.286;8.484;2023-07-02T07:54:40;22.63;;;15.07;;
39738;SDS011;25422;48.286;8.484;2023-07-02T07:57:06;23.90;;;15.57;;
39738;SDS011;25422;48.286;8.484;2023-07-02T07:59:32;21.75;;;15.02;;
39738;SDS011;25422;48.286;8.484;2023-07-02T08:01:58;19.23;;;13.38;;
39738;SDS011;25422;48.286;8.484;2023-07-02T08:04:23;22.67;;;14.80;;
39738;SDS011;25422;48.286;8.484;2023-07-02T08:06:48;26.27;;;14.63;;
39738;SDS011;25422;48.286;8.484;2023-07-02T08:09:14;20.98;;;13.75;;
39738;SDS011;25422;48.286;8.484;2023-07-02T08:11:39;22.23;;;13.88;;
39738;SDS011;25422;48.286;8.484;2023-07-02T08:14:04;21.05;;;13.20;;
39738;SDS011;25422;48.286;8.484;2023-07-02T08:16:30;22.00;;;13.10;;
39738;SDS011;25422;48.286;8.484;2023-07-02T08:18:55;23.33;;;14.80;;
39738;SDS011;25422;48.286;8.484;2023-07-02T08:21:20;23.05;;;14.05;;
39738;SDS011;25422;48.286;8.484;2023-07-02T08:23:46;22.52;;;14.18;;
39738;SDS011;25422;48.286;8.484;2023-07-02T08:26:11;24.35;;;15.00;;
39738;SDS011;25422;48.286;8.484;2023-07-02T08:28:38;25.77;;;14.55;;
39738;SDS011;25422;48.286;8.484;2023-07-02T08:31:04;22.60;;;14.65;;
39738;SDS011;25422;48.286;8.484;2023-07-02T08:33:29;23.00;;;14.98;;
39738;SDS011;25422;48.286;8.484;2023-07-02T08:35:55;23.70;;;14.85;;
39738;SDS011;25422;48.286;8.484;2023-07-02T08:38:25;23.38;;;15.02;;
39738;SDS011;25422;48.286;8.484;2023-07-02T08:40:51;22.98;;;15.50;;
39738;SDS011;25422;48.286;8.484;2023-07-02T08:43:16;28.08;;;16.70;;
39738;SDS011;25422;48.286;8.484;2023-07-02T08:45:42;26.30;;;16.17;;
39738;SDS011;25422;48.286;8.484;2023-07-02T08:48:08;26.25;;;16.40;;
39738;SDS011;25422;48.286;8.484;2023-07-02T08:50:33;27.90;;;16.88;;
39738;SDS011;25422;48.286;8.484;2023-07-02T08:52:59;26.15;;;17.02;;
39738;SDS011;25422;48.286;8.484;2023-07-02T08:55:24;26.70;;;16.27;;
39738;SDS011;25422;48.286;8.484;2023-07-02T08:57:53;26.02;;;16.35;;
39738;SDS011;25422;48.286;8.484;2023-07-02T09:00:19;25.63;;;16.38;;
39738;SDS011;25422;48.286;8.484;2023-07-02T09:02:45;23.38;;;16.38;;
39738;SDS011;25422;48.286;8.484;2023-07-02T09:05:12;29.63;;;17.30;;
39738;SDS011;25422;48.286;8.484;2023-07-02T09:07:47;27.15;;;18.02;;
39738;SDS011;25422;48.286;8.484;2023-07-02T09:10:26;28.98;;;17.50;;
39738;SDS011;25422;48.286;8.484;2023-07-02T09:13:07;27.52;;;17.85;;
39738;SDS011;25422;48.286;8.484;2023-07-02T09:15:35;27.33;;;18.17;;
39738;SDS011;25422;48.286;8.484;2023-07-02T09:18:16;22.75;;;16.55;;
39738;SDS011;25422;48.286;8.484;2023-07-02T09:20:46;26.13;;;16.73;;
39738;SDS011;25422;48.286;8.484;2023-07-02T09:23:15;26.45;;;15.80;;
39738;SDS011;25422;48.286;8.484;2023-07-02T09:25:40;25.25;;;16.17;;
39738;SDS011;25422;48.286;8.484;2023-07-02T09:28:19;25.17;;;16.60;;
39738;SDS011;25422;48.286;8.484;2023-07-02T09:30:56;24.05;;;16.38;;
39738;SDS011;25422;48.286;8.484;2023-07-02T09:33:23;29.00;;;17.25;;
39738;SDS011;25422;48.286;8.484;2023-07-02T09:35:49;27.02;;;17.25;;
39738;SDS011;25422;48.286;8.484;2023-07-02T09:38:17;26.20;;;16.77;;
39738;SDS011;25422;48.286;8.484;2023-07-02T09:40:45;26.42;;;17.27;;
39738;SDS011;25422;48.286;8.484;2023-07-02T09:43:13;22.38;;;16.23;;
39738;SDS011;25422;48.286;8.484;2023-07-02T09:45:43;24.45;;;16.80;;
39738;SDS011;25422;48.286;8.484;2023-07-02T09:48:11;24.35;;;16.13;;
39738;SDS011;25422;48.286;8.484;2023-07-02T09:53:05;27.40;;;16.40;;
39738;SDS011;25422;48.286;8.484;2023-07-02T09:55:31;26.50;;;16.17;;
39738;SDS011;25422;48.286;8.484;2023-07-02T09:57:57;27.10;;;16.83;;
39738;SDS011;25422;48.286;8.484;2023-07-02T10:00:22;26.23;;;16.08;;
39738;SDS011;25422;48.286;8.484;2023-07-02T10:02:48;24.33;;;15.90;;
39738;SDS011;25422;48.286;8.484;2023-07-02T10:05:31;23.73;;;15.18;;
39738;SDS011;25422;48.286;8.484;2023-07-02T10:07:58;25.13;;;15.82;;
39738;SDS011;25422;48.286;8.484;2023-07-02T10:10:36;22.63;;;15.77;;
39738;SDS011;25422;48.286;8.484;2023-07-02T10:13:01;24.55;;;17.08;;
39738;SDS011;25422;48.286;8.484;2023-07-02T10:15:27;29.73;;;17.45;;
39738;SDS011;25422;48.286;8.484;2023-07-02T10:17:54;26.77;;;17.00;;
39738;SDS011;25422;48.286;8.484;2023-07-02T10:20:30;26.83;;;16.30;;
39738;SDS011;25422;48.286;8.484;2023-07-02T10:23:03;26.38;;;16.10;;
39738;SDS011;25422;48.286;8.484;2023-07-02T10:25:34;32.13;;;17.20;;
39738;SDS011;25422;48.286;8.484;2023-07-02T10:28:02;23.73;;;16.52;;
39738;SDS011;25422;48.286;8.484;2023-07-02T10:30:42;24.08;;;16.30;;
39738;SDS011;25422;48.286;8.484;2023-07-02T10:33:08;26.45;;;17.33;;
39738;SDS011;25422;48.286;8.484;2023-07-02T10:35:38;30.95;;;19.30;;
39738;SDS011;25422;48.286;8.484;2023-07-02T10:38:06;25.27;;;17.75;;
39738;SDS011;25422;48.286;8.484;2023-07-02T10:40:32;23.48;;;15.88;;
39738;SDS011;25422;48.286;8.484;2023-07-02T10:43:01;25.52;;;16.75;;
39738;SDS011;25422;48.286;8.484;2023-07-02T10:45:33;23.65;;;16.42;;
39738;SDS011;25422;48.286;8.484;2023-07-02T10:48:03;22.25;;;15.30;;
39738;SDS011;25422;48.286;8.484;2023-07-02T10:50:30;22.25;;;14.85;;
39738;SDS011;25422;48.286;8.484;2023-07-02T10:52:57;27.55;;;16.83;;
39738;SDS011;25422;48.286;8.484;2023-07-02T10:55:23;23.45;;;15.65;;
39738;SDS011;25422;48.286;8.484;2023-07-02T10:57:50;25.55;;;17.15;;
39738;SDS011;25422;48.286;8.484;2023-07-02T11:00:26;27.35;;;17.73;;
39738;SDS011;25422;48.286;8.484;2023-07-02T11:02:52;23.33;;;16.70;;
39738;SDS011;25422;48.286;8.484;2023-07-02T11:05:17;25.77;;;16.30;;
39738;SDS011;25422;48.286;8.484;2023-07-02T11:07:43;24.25;;;16.35;;
39738;SDS011;25422;48.286;8.484;2023-07-02T11:10:09;23.77;;;16.50;;
39738;SDS011;25422;48.286;8.484;2023-07-02T11:12:36;25.33;;;17.67;;
39738;SDS011;25422;48.286;8.484;2023-07-02T11:15:09;25.08;;;17.60;;
39738;SDS011;25422;48.286;8.484;2023-07-02T11:17:35;30.55;;;19.77;;
39738;SDS011;25422;48.286;8.484;2023-07-02T11:20:01;27.50;;;19.33;;
39738;SDS011;25422;48.286;8.484;2023-07-02T11:22:33;26.73;;;18.70;;
39738;SDS011;25422;48.286;8.484;2023-07-02T11:25:18;28.42;;;18.65;;
39738;SDS011;25422;48.286;8.484;2023-07-02T11:27:45;29.65;;;19.85;;
39738;SDS011;25422;48.286;8.484;2023-07-02T11:30:11;26.20;;;19.25;;
39738;SDS011;25422;48.286;8.484;2023-07-02T11:35:34;32.58;;;21.27;;
39738;SDS011;25422;48.286;8.484;2023-07-02T11:40:26;31.45;;;20.35;;
39738;SDS011;25422;48.286;8.484;2023-07-02T11:42:51;27.15;;;19.80;;
39738;SDS011;25422;48.286;8.484;2023-07-02T11:45:17;28.67;;;19.25;;
39738;SDS011;25422;48.286;8.484;2023-07-02T11:47:42;26.45;;;19.80;;
39738;SDS011;25422;48.286;8.484;2023-07-02T11:50:08;26.92;;;19.45;;
39738;SDS011;25422;48.286;8.484;2023-07-02T11:52:33;29.73;;;18.85;;
39738;SDS011;25422;48.286;8.484;2023-07-02T11:54:59;28.42;;;18.73;;
39738;SDS011;25422;48.286;8.484;2023-07-02T11:57:24;25.98;;;17.35;;
39738;SDS011;25422;48.286;8.484;2023-07-02T11:59:50;24.88;;;17.27;;
39738;SDS011;25422;48.286;8.484;2023-07-02T12:02:15;26.23;;;16.80;;
39738;SDS011;25422;48.286;8.484;2023-07-02T12:04:41;26.75;;;17.10;;
39738;SDS011;25422;48.286;8.484;2023-07-02T12:07:06;25.13;;;17.90;;
39738;SDS011;25422;48.286;8.484;2023-07-02T12:09:32;24.88;;;17.45;;
39738;SDS011;25422;48.286;8.484;2023-07-02T12:11:57;24.08;;;17.17;;
39738;SDS011;25422;48.286;8.484;2023-07-02T12:14:22;22.80;;;16.27;;
39738;SDS011;25422;48.286;8.484;2023-07-02T12:16:48;23.70;;;16.38;;
39738;SDS011;25422;48.286;8.484;2023-07-02T12:19:13;22.77;;;16.00;;
39738;SDS011;25422;48.286;8.484;2023-07-02T12:21:38;22.60;;;15.60;;
39738;SDS011;25422;48.286;8.484;2023-07-02T12:24:04;23.42;;;16.33;;
39738;SDS011;25422;48.286;8.484;2023-07-02T12:26:34;24.67;;;16.20;;
39738;SDS011;25422;48.286;8.484;2023-07-02T12:29:02;24.85;;;16.35;;
39738;SDS011;25422;48.286;8.484;2023-07-02T12:31:29;20.50;;;15.90;;
39738;SDS011;25422;48.286;8.484;2023-07-02T12:33:55;22.65;;;17.17;;
39738;SDS011;25422;48.286;8.484;2023-07-02T12:36:20;23.55;;;17.13;;
39738;SDS011;25422;48.286;8.484;2023-07-02T12:38:45;24.55;;;17.00;;
39738;SDS011;25422;48.286;8.484;2023-07-02T12:41:11;23.05;;;15.82;;
39738;SDS011;25422;48.286;8.484;2023-07-02T12:43:36;22.10;;;16.35;;
39738;SDS011;25422;48.286;8.484;2023-07-02T12:46:01;23.50;;;16.33;;
39738;SDS011;25422;48.286;8.484;2023-07-02T12:48:27;23.90;;;16.13;;
39738;SDS011;25422;48.286;8.484;2023-07-02T12:50:53;23.40;;;16.67;;
39738;SDS011;25422;48.286;8.484;2023-07-02T12:53:22;23.52;;;16.05;;
39738;SDS011;25422;48.286;8.484;2023-07-02T12:55:49;22.95;;;14.52;;
39738;SDS011;25422;48.286;8.484;2023-07-02T12:58:14;23.63;;;15.73;;
39738;SDS011;25422;48.286;8.484;2023-07-02T13:00:40;20.95;;;15.05;;
39738;SDS011;25422;48.286;8.484;2023-07-02T13:03:12;22.50;;;15.05;;
39738;SDS011;25422;48.286;8.484;2023-07-02T13:05:38;27.67;;;16.15;;
39738;SDS011;25422;48.286;8.484;2023-07-02T13:08:05;24.08;;;15.35;;
39738;SDS011;25422;48.286;8.484;2023-07-02T13:10:33;23.35;;;15.20;;
39738;SDS011;25422;48.286;8.484;2023-07-02T13:12:59;21.42;;;15.57;;
39738;SDS011;25422;48.286;8.484;2023-07-02T13:15:25;22.05;;;14.38;;
39738;SDS011;25422;48.286;8.484;2023-07-02T13:17:50;22.95;;;15.63;;
39738;SDS011;25422;48.286;8.484;2023-07-02T13:20:16;22.10;;;14.82;;
39738;SDS011;25422;48.286;8.484;2023-07-02T13:22:41;20.13;;;14.48;;
39738;SDS011;25422;48.286;8.484;2023-07-02T13:25:07;26.63;;;15.13;;
39738;SDS011;25422;48.286;8.484;2023-07-02T13:27:33;22.90;;;14.57;;
39738;SDS011;25422;48.286;8.484;2023-07-02T13:29:58;21.80;;;15.25;;
39738;SDS011;25422;48.286;8.484;2023-07-02T13:32:24;23.40;;;15.15;;
39738;SDS011;25422;48.286;8.484;2023-07-02T13:34:49;21.08;;;14.77;;
39738;SDS011;25422;48.286;8.484;2023-07-02T13:37:15;24.23;;;15.95;;
39738;SDS011;25422;48.286;8.484;2023-07-02T13:39:43;23.37;;;15.73;;
39738;SDS011;25422;48.286;8.484;2023-07-02T13:42:12;24.33;;;16.65;;
39738;SDS011;25422;48.286;8.484;2023-07-02T13:44:38;23.58;;;16.17;;
39738;SDS011;25422;48.286;8.484;2023-07-02T13:47:03;23.80;;;16.17;;
39738;SDS011;25422;48.286;8.484;2023-07-02T13:49:30;27.48;;;16.40;;
39738;SDS011;25422;48.286;8.484;2023-07-02T13:51:55;25.25;;;17.38;;
39738;SDS011;25422;48.286;8.484;2023-07-02T13:54:21;23.90;;;16.10;;
39738;SDS011;25422;48.286;8.484;2023-07-02T13:56:46;22.63;;;15.65;;
39738;SDS011;25422;48.286;8.484;2023-07-02T13:59:12;24.35;;;15.55;;
39738;SDS011;25422;48.286;8.484;2023-07-02T14:01:39;22.65;;;15.68;;
39738;SDS011;25422;48.286;8.484;2023-07-02T14:04:04;22.17;;;15.10;;
39738;SDS011;25422;48.286;8.484;2023-07-02T14:06:30;25.27;;;15.95;;
39738;SDS011;25422;48.286;8.484;2023-07-02T14:08:56;23.80;;;15.73;;
39738;SDS011;25422;48.286;8.484;2023-07-02T14:11:23;22.27;;;14.98;;
39738;SDS011;25422;48.286;8.484;2023-07-02T14:13:49;23.40;;;15.40;;
39738;SDS011;25422;48.286;8.484;2023-07-02T14:16:14;21.85;;;14.88;;
39738;SDS011;25422;48.286;8.484;2023-07-02T14:18:40;24.25;;;15.48;;
39738;SDS011;25422;48.286;8.484;2023-07-02T14:21:06;23.15;;;15.75;;
39738;SDS011;25422;48.286;8.484;2023-07-02T14:23:31;23.00;;;16.33;;
39738;SDS011;25422;48.286;8.484;2023-07-02T14:25:57;23.13;;;16.17;;
39738;SDS011;25422;48.286;8.484;2023-07-02T14:28:23;23.65;;;15.77;;
39738;SDS011;25422;48.286;8.484;2023-07-02T14:30:55;24.40;;;15.32;;
39738;SDS011;25422;48.286;8.484;2023-07-02T14:33:22;22.40;;;14.75;;
39738;SDS011;25422;48.286;8.484;2023-07-02T14:35:47;23.17;;;16.02;;
39738;SDS011;25422;48.286;8.484;2023-07-02T14:38:12;23.35;;;16.23;;
39738;SDS011;25422;48.286;8.484;2023-07-02T14:40:38;23.80;;;16.13;;
39738;SDS011;25422;48.286;8.484;2023-07-02T14:43:03;26.75;;;16.35;;